Time;durP1;ratioP1;P1;durP2;ratioP2;P2;SDS_P1;SDS_P2;PMS_P1;PMS_P2;Temp;Humidity;BMP_temperature;BMP_pressure;BME280_temperature;BME280_humidity;BME280_pressure;Samples;Min_cycle;Max_cycle;Signal;HPM_P1;HPM_P2
2022/01/25 06:48:24;;;;;;;25.17;16.52;;;;;;;;;;10606995;27;20592;-83
2022/01/25 06:53:25;;;;;;;29.80;19.83;;;;;;;;;;10601920;28;20035;-83
2022/01/25 06:58:26;;;;;;;23.98;17.20;;;;;;;;;;10598154;28;20056;-83
2022/01/25 07:03:27;;;;;;;24.35;17.10;;;;;;;;;;10597482;28;20362;-84
2022/01/25 07:08:28;;;;;;;;;;;;;;;;;;10595113;28;20038;-83
2022/01/25 07:13:29;;;;;;;24.20;18.33;;;;;;;;;;10597758;28;19971;-83
2022/01/25 07:18:30;;;;;;;22.05;17.02;;;;;;;;;;10595630;28;20037;-84
2022/01/25 07:23:31;;;;;;;24.88;19.58;;;;;;;;;;10600819;28;20034;-84
2022/01/25 07:28:33;;;;;;;;;;;;;;;;;;10618977;28;20069;-82
2022/01/25 07:33:34;;;;;;;24.00;18.38;;;;;;;;;;10622673;28;19911;-82
2022/01/25 07:38:35;;;;;;;;;;;;;;;;;;10622261;28;20428;-84
2022/01/25 07:43:36;;;;;;;23.30;18.70;;;;;;;;;;10603586;28;19955;-84
2022/01/25 07:48:37;;;;;;;;;;;;;;;;;;10599808;28;20020;-84
2022/01/25 07:53:39;;;;;;;26.98;20.55;;;;;;;;;;10598875;28;19904;-83
2022/01/25 07:58:40;;;;;;;20.10;15.27;;;;;;;;;;10575117;28;20031;-84
2022/01/25 08:03:41;;;;;;;;;;;;;;;;;;10570932;28;20060;-85
2022/01/25 08:08:42;;;;;;;22.77;16.88;;;;;;;;;;10567018;28;19976;-83
2022/01/25 08:13:48;;;;;;;;;;;;;;;;;;10562547;28;20032;-84
2022/01/25 08:18:49;;;;;;;27.05;21.60;;;;;;;;;;10575692;28;19911;-82
2022/01/25 08:23:50;;;;;;;25.60;19.98;;;;;;;;;;10573086;28;20101;-83
2022/01/25 08:28:51;;;;;;;;;;;;;;;;;;10579078;28;20473;-83
2022/01/25 08:33:53;;;;;;;27.20;21.60;;;;;;;;;;10579027;28;20015;-83
2022/01/25 08:38:54;;;;;;;23.00;18.48;;;;;;;;;;10564263;28;20025;-83
2022/01/25 08:43:55;;;;;;;23.98;18.90;;;;;;;;;;10578690;28;20028;-83
2022/01/25 08:48:56;;;;;;;;;;;;;;;;;;10562362;28;20023;-83
2022/01/25 08:53:59;;;;;;;21.08;16.45;;;;;;;;;;10562776;28;19911;-83
2022/01/25 08:59:00;;;;;;;22.95;18.05;;;;;;;;;;10561046;28;20028;-83
2022/01/25 09:04:02;;;;;;;27.35;19.55;;;;;;;;;;10559471;28;20058;-83
2022/01/25 09:09:07;;;;;;;29.23;20.83;;;;;;;;;;10559954;28;20045;-83
2022/01/25 09:14:09;;;;;;;22.67;16.70;;;;;;;;;;10578552;22;20024;-81
2022/01/25 09:19:10;;;;;;;22.50;16.63;;;;;;;;;;10385820;28;20116;-82
2022/01/25 09:24:11;;;;;;;25.73;18.05;;;;;;;;;;10384952;28;20403;-81
2022/01/25 09:29:12;;;;;;;;;;;;;;;;;;10386124;28;20033;-82
2022/01/25 09:34:15;;;;;;;25.08;18.75;;;;;;;;;;10386455;28;19920;-82
2022/01/25 09:39:16;;;;;;;25.88;18.77;;;;;;;;;;10404406;28;20049;-82
2022/01/25 09:44:17;;;;;;;20.17;15.00;;;;;;;;;;10409522;28;20121;-81
2022/01/25 09:49:18;;;;;;;;;;;;;;;;;;10409744;28;20030;-81
2022/01/25 09:54:19;;;;;;;24.88;17.92;;;;;;;;;;10387155;28;19955;-82
2022/01/25 09:59:20;;;;;;;;;;;;;;;;;;10387585;28;20029;-81
2022/01/25 10:04:42;;;;;;;25.17;18.02;;;;;;;;;;10386575;28;19909;-81
2022/01/25 10:09:43;;;;;;;25.95;18.60;;;;;;;;;;10385740;28;20038;-82
2022/01/25 10:14:54;;;;;;;22.20;16.13;;;;;;;;;;10386884;28;20048;-81
2022/01/25 10:19:55;;;;;;;27.55;19.38;;;;;;;;;;10385766;28;20464;-81
2022/01/25 10:24:56;;;;;;;;;;;;;;;;;;10384931;28;20117;-81
2022/01/25 10:30:06;;;;;;;26.08;18.20;;;;;;;;;;10382119;28;19906;-81
2022/01/25 10:35:15;;;;;;;41.87;28.97;;;;;;;;;;10382911;28;20101;-81
2022/01/25 10:40:16;;;;;;;31.33;21.67;;;;;;;;;;10386407;28;20108;-82
2022/01/25 10:45:19;;;;;;;;;;;;;;;;;;10389804;28;20077;-81
2022/01/25 10:50:20;;;;;;;24.90;17.17;;;;;;;;;;10383328;28;19928;-82
2022/01/25 10:55:21;;;;;;;28.45;19.20;;;;;;;;;;10383074;28;20033;-81
2022/01/25 11:00:22;;;;;;;;;;;;;;;;;;10383719;28;20090;-81
2022/01/25 11:05:23;;;;;;;24.70;16.88;;;;;;;;;;10383807;28;19921;-80
2022/01/25 11:10:23;;;;;;;;;;;;;;;;;;10382598;28;20034;-81
2022/01/25 11:15:25;;;;;;;32.28;21.92;;;;;;;;;;10381824;28;20383;-81
2022/01/25 11:20:26;;;;;;;27.50;18.65;;;;;;;;;;10381718;28;20030;-80
2022/01/25 11:25:27;;;;;;;29.80;19.70;;;;;;;;;;10381916;28;20034;-81
2022/01/25 11:30:29;;;;;;;33.00;22.45;;;;;;;;;;10380319;28;20026;-81
2022/01/25 11:35:31;;;;;;;23.65;16.52;;;;;;;;;;10386925;28;20112;-82
2022/01/25 11:40:32;;;;;;;23.55;17.42;;;;;;;;;;10391373;28;20014;-82
2022/01/25 11:45:34;;;;;;;28.50;19.17;;;;;;;;;;10392208;28;20034;-80
2022/01/25 11:50:36;;;;;;;26.30;18.48;;;;;;;;;;10389413;28;20057;-82
2022/01/25 11:55:39;;;;;;;32.00;22.27;;;;;;;;;;10390996;28;20105;-83
2022/01/25 12:00:51;;;;;;;29.23;19.17;;;;;;;;;;10387821;28;20392;-82
2022/01/25 12:06:08;;;;;;;32.33;19.60;;;;;;;;;;10389991;28;20054;-82
2022/01/25 12:11:49;;;;;;;23.40;16.70;;;;;;;;;;10396866;28;20105;-82
2022/01/25 12:16:54;;;;;;;25.23;17.27;;;;;;;;;;10301278;28;20053;-82
2022/01/25 12:21:55;;;;;;;28.42;19.45;;;;;;;;;;10393706;28;20394;-81
2022/01/25 12:27:19;;;;;;;30.35;20.63;;;;;;;;;;10396047;28;20018;-82
2022/01/25 12:32:23;;;;;;;33.40;24.33;;;;;;;;;;10395988;28;20033;-80
2022/01/25 12:37:48;;;;;;;24.45;17.63;;;;;;;;;;10397406;28;20037;-80
2022/01/25 12:42:49;;;;;;;31.20;19.08;;;;;;;;;;10398171;28;20045;-81
2022/01/25 12:47:50;;;;;;;;;;;;;;;;;;10389518;28;20036;-80
2022/01/25 12:52:51;;;;;;;23.70;17.20;;;;;;;;;;10390825;28;19905;-82
2022/01/25 12:58:12;;;;;;;30.55;20.25;;;;;;;;;;10391914;28;20093;-82
2022/01/25 13:03:15;;;;;;;33.90;23.27;;;;;;;;;;10392396;28;20077;-81
2022/01/25 13:08:17;;;;;;;34.50;23.27;;;;;;;;;;10393769;28;20040;-81
2022/01/25 13:13:29;;;;;;;37.05;25.25;;;;;;;;;;10394103;28;20469;-81
2022/01/25 13:18:32;;;;;;;38.45;28.00;;;;;;;;;;10388612;28;20030;-81
2022/01/25 13:23:33;;;;;;;40.85;27.50;;;;;;;;;;10397736;28;20044;-81
2022/01/25 13:33:54;;;;;;;38.65;26.23;;;;;;;;;;10387177;28;20117;-82
2022/01/25 13:38:55;;;;;;;35.75;24.63;;;;;;;;;;10387161;28;20022;-81
2022/01/25 13:49:05;;;;;;;36.15;24.90;;;;;;;;;;10385307;28;20095;-81
2022/01/25 13:54:07;;;;;;;33.88;25.20;;;;;;;;;;10384404;28;20026;-77
2022/01/25 13:59:08;;;;;;;38.95;27.30;;;;;;;;;;10375016;28;20037;-77
2022/01/25 14:04:17;;;;;;;35.20;24.70;;;;;;;;;;10376615;28;20060;-77
2022/01/25 14:09:23;;;;;;;29.70;22.90;;;;;;;;;;10380590;28;20033;-77
2022/01/25 14:25:05;;;;;;;32.75;22.83;;;;;;;;;;10377094;28;20042;-77
2022/01/25 14:30:06;;;;;;;24.77;18.48;;;;;;;;;;10374059;28;20048;-77
2022/01/25 14:35:10;;;;;;;32.78;23.48;;;;;;;;;;10375389;28;20037;-77
2022/01/25 14:40:12;;;;;;;27.05;20.23;;;;;;;;;;10375508;28;20079;-77
2022/01/25 14:45:19;;;;;;;27.63;20.55;;;;;;;;;;10373432;28;20025;-77
2022/01/25 14:50:25;;;;;;;27.52;20.50;;;;;;;;;;10373328;28;20036;-76
2022/01/25 14:55:26;;;;;;;31.58;22.88;;;;;;;;;;10375729;28;20032;-77
2022/01/25 15:00:27;;;;;;;27.05;19.83;;;;;;;;;;10373726;28;20026;-76
2022/01/25 15:05:28;;;;;;;;;;;;;;;;;;10377311;28;20443;-77
2022/01/25 15:10:32;;;;;;;26.98;20.80;;;;;;;;;;10383524;28;19996;-76
2022/01/25 15:20:52;;;;;;;29.80;21.38;;;;;;;;;;10390695;28;20030;-79
2022/01/25 15:25:56;;;;;;;28.60;21.13;;;;;;;;;;10392487;28;20056;-79
2022/01/25 15:30:57;;;;;;;24.88;17.60;;;;;;;;;;10397448;28;20026;-79
2022/01/25 15:35:58;;;;;;;;;;;;;;;;;;10392681;28;20093;-79
2022/01/25 15:41:00;;;;;;;43.20;29.80;;;;;;;;;;10389959;28;19905;-79
2022/01/25 15:46:04;;;;;;;28.52;20.38;;;;;;;;;;10402196;28;20033;-76
2022/01/25 15:51:05;;;;;;;26.92;19.52;;;;;;;;;;10400816;28;20032;-75
2022/01/25 15:56:06;;;;;;;;;;;;;;;;;;10394743;28;20056;-76
2022/01/25 16:01:10;;;;;;;26.48;18.60;;;;;;;;;;10394308;28;19905;-77
2022/01/25 16:06:11;;;;;;;25.65;18.52;;;;;;;;;;10392335;28;20030;-76
2022/01/25 16:11:16;;;;;;;25.70;18.02;;;;;;;;;;10391584;28;20030;-77
2022/01/25 16:16:18;;;;;;;21.85;16.75;;;;;;;;;;10394445;28;20034;-78
2022/01/25 16:21:19;;;;;;;24.58;17.90;;;;;;;;;;10394616;28;20567;-79
2022/01/25 16:26:21;;;;;;;26.02;18.83;;;;;;;;;;10397734;28;20036;-79
2022/01/25 16:31:28;;;;;;;23.17;17.45;;;;;;;;;;10401263;28;20093;-78
2022/01/25 16:36:30;;;;;;;28.63;20.95;;;;;;;;;;10400262;28;20037;-79
2022/01/25 16:41:31;;;;;;;23.00;16.83;;;;;;;;;;10400760;28;20120;-79
2022/01/25 16:46:32;;;;;;;;;;;;;;;;;;10403056;28;20037;-80
2022/01/25 16:51:53;;;;;;;22.25;16.60;;;;;;;;;;10407437;28;20307;-80
2022/01/25 16:56:54;;;;;;;27.13;19.13;;;;;;;;;;10403467;28;20026;-80
2022/01/25 17:01:55;;;;;;;;;;;;;;;;;;10406580;28;20022;-81
2022/01/25 17:06:56;;;;;;;23.73;17.70;;;;;;;;;;10404666;28;19964;-81
2022/01/25 17:11:57;;;;;;;21.58;17.00;;;;;;;;;;10401197;28;20034;-80
2022/01/25 17:16:58;;;;;;;23.90;18.00;;;;;;;;;;10403092;28;20069;-81
